Kushiro Airport Kushiro JP
ICAO: RJCK
IATA:
Category: Medium
Scheduled Services:

Elevation: 327 ft
TransAlt. 14000 ft.

Airport Communications:
SAPPORO CON:127.5
TWR:118.05

RJCK Zoom In..

If you have problems with the map follow the link
https://www.worldairports.se/pages/airport.php?
ICAO=RJCK

Runways:

(A) RW 17 length 8202 ft width 148 ft
ILS 108.90 / hdg 168

(B) RW 35 length 8202 ft width 148 ft
---- / hdg 348

Location; RJCK
Day. 22 / Time. 11.00 Zulu
* QNH: 1026
* Temperature: 09° c. 48.2°f.
* Wind from: 060° Speed 03 kn.
Dewpoint: 06° c.
Visibility: 10 km or more.
Clouds: Few 1500 ft.
Clouds: Broken 2500 ft.

RJCK 221100Z 06003KT 9999 FEW015 BKN025 09/06 Q1026


Wind From 060°
Speed 03 kn.

 
 
jpsmedia.com for Web Design worldairports.se 2018   terms of use